sensor_id;sensor_type;location;lat;lon;timestamp;P1;durP1;ratioP1;P2;durP2;ratioP2
11010;SDS011;5558;42.702;23.178;2024-03-25T00:02:06;3.83;;;3.33;;
11010;SDS011;5558;42.702;23.178;2024-03-25T00:04:31;1.00;;;1.00;;
11010;SDS011;5558;42.702;23.178;2024-03-25T00:06:58;1.33;;;1.20;;
11010;SDS011;5558;42.702;23.178;2024-03-25T00:09:24;1.70;;;1.60;;
11010;SDS011;5558;42.702;23.178;2024-03-25T00:11:51;1.50;;;1.50;;
11010;SDS011;5558;42.702;23.178;2024-03-25T00:14:19;1.20;;;1.20;;
11010;SDS011;5558;42.702;23.178;2024-03-25T00:16:47;2.80;;;2.70;;
11010;SDS011;5558;42.702;23.178;2024-03-25T00:19:13;2.43;;;2.23;;
11010;SDS011;5558;42.702;23.178;2024-03-25T00:21:39;1.70;;;1.60;;
11010;SDS011;5558;42.702;23.178;2024-03-25T00:24:05;1.20;;;1.20;;
11010;SDS011;5558;42.702;23.178;2024-03-25T00:26:32;0.50;;;0.50;;
11010;SDS011;5558;42.702;23.178;2024-03-25T00:28:58;0.50;;;0.50;;
11010;SDS011;5558;42.702;23.178;2024-03-25T00:31:25;13.27;;;11.93;;
11010;SDS011;5558;42.702;23.178;2024-03-25T00:33:52;2.00;;;1.90;;
11010;SDS011;5558;42.702;23.178;2024-03-25T00:36:19;0.40;;;0.40;;
11010;SDS011;5558;42.702;23.178;2024-03-25T00:38:44;0.20;;;0.20;;
11010;SDS011;5558;42.702;23.178;2024-03-25T00:41:11;0.37;;;0.37;;
11010;SDS011;5558;42.702;23.178;2024-03-25T00:43:36;1.90;;;1.80;;
11010;SDS011;5558;42.702;23.178;2024-03-25T00:46:03;0.50;;;0.50;;
11010;SDS011;5558;42.702;23.178;2024-03-25T00:48:29;0.30;;;0.30;;
11010;SDS011;5558;42.702;23.178;2024-03-25T00:50:57;0.40;;;0.40;;
11010;SDS011;5558;42.702;23.178;2024-03-25T00:53:23;0.30;;;0.30;;
11010;SDS011;5558;42.702;23.178;2024-03-25T00:55:49;0.20;;;0.20;;
11010;SDS011;5558;42.702;23.178;2024-03-25T00:58:15;0.50;;;0.50;;
11010;SDS011;5558;42.702;23.178;2024-03-25T01:00:41;0.20;;;0.20;;
11010;SDS011;5558;42.702;23.178;2024-03-25T01:03:07;0.30;;;0.30;;
11010;SDS011;5558;42.702;23.178;2024-03-25T01:05:34;0.60;;;0.37;;
11010;SDS011;5558;42.702;23.178;2024-03-25T01:08:01;0.37;;;0.37;;
11010;SDS011;5558;42.702;23.178;2024-03-25T01:10:28;0.30;;;0.30;;
11010;SDS011;5558;42.702;23.178;2024-03-25T01:12:54;0.40;;;0.30;;
11010;SDS011;5558;42.702;23.178;2024-03-25T01:15:22;0.30;;;0.30;;
11010;SDS011;5558;42.702;23.178;2024-03-25T01:17:48;0.30;;;0.30;;
11010;SDS011;5558;42.702;23.178;2024-03-25T01:20:14;0.50;;;0.50;;
11010;SDS011;5558;42.702;23.178;2024-03-25T01:22:40;1.90;;;1.80;;
11010;SDS011;5558;42.702;23.178;2024-03-25T01:25:08;0.30;;;0.30;;
11010;SDS011;5558;42.702;23.178;2024-03-25T01:27:34;0.30;;;0.30;;
11010;SDS011;5558;42.702;23.178;2024-03-25T01:30:01;0.77;;;0.40;;
11010;SDS011;5558;42.702;23.178;2024-03-25T01:32:29;0.20;;;0.20;;
11010;SDS011;5558;42.702;23.178;2024-03-25T01:34:55;0.97;;;0.33;;
11010;SDS011;5558;42.702;23.178;2024-03-25T01:37:21;3.67;;;2.60;;
11010;SDS011;5558;42.702;23.178;2024-03-25T01:39:48;0.80;;;0.80;;
11010;SDS011;5558;42.702;23.178;2024-03-25T01:42:15;0.30;;;0.30;;
11010;SDS011;5558;42.702;23.178;2024-03-25T01:44:42;0.60;;;0.50;;
11010;SDS011;5558;42.702;23.178;2024-03-25T01:47:08;0.57;;;0.57;;
11010;SDS011;5558;42.702;23.178;2024-03-25T01:49:35;0.80;;;0.80;;
11010;SDS011;5558;42.702;23.178;2024-03-25T01:52:00;0.80;;;0.80;;
11010;SDS011;5558;42.702;23.178;2024-03-25T01:54:27;0.50;;;0.50;;
11010;SDS011;5558;42.702;23.178;2024-03-25T01:56:53;0.40;;;0.40;;
11010;SDS011;5558;42.702;23.178;2024-03-25T01:59:22;0.40;;;0.40;;
11010;SDS011;5558;42.702;23.178;2024-03-25T02:01:49;0.30;;;0.30;;
11010;SDS011;5558;42.702;23.178;2024-03-25T02:04:15;0.40;;;0.40;;
11010;SDS011;5558;42.702;23.178;2024-03-25T02:06:41;0.40;;;0.40;;
11010;SDS011;5558;42.702;23.178;2024-03-25T02:09:10;0.40;;;0.40;;
11010;SDS011;5558;42.702;23.178;2024-03-25T02:11:37;1.50;;;1.40;;
11010;SDS011;5558;42.702;23.178;2024-03-25T02:14:05;1.00;;;1.00;;
11010;SDS011;5558;42.702;23.178;2024-03-25T02:16:33;0.30;;;0.30;;
11010;SDS011;5558;42.702;23.178;2024-03-25T02:19:00;0.30;;;0.30;;
11010;SDS011;5558;42.702;23.178;2024-03-25T02:21:26;1.43;;;1.43;;
11010;SDS011;5558;42.702;23.178;2024-03-25T02:23:53;1.60;;;1.50;;
11010;SDS011;5558;42.702;23.178;2024-03-25T02:26:23;0.47;;;0.47;;
11010;SDS011;5558;42.702;23.178;2024-03-25T02:28:50;0.33;;;0.33;;
11010;SDS011;5558;42.702;23.178;2024-03-25T02:31:16;0.40;;;0.40;;
11010;SDS011;5558;42.702;23.178;2024-03-25T02:33:42;0.80;;;0.80;;
11010;SDS011;5558;42.702;23.178;2024-03-25T02:36:08;0.40;;;0.40;;
11010;SDS011;5558;42.702;23.178;2024-03-25T02:38:35;0.67;;;0.67;;
11010;SDS011;5558;42.702;23.178;2024-03-25T02:41:01;0.67;;;0.40;;
11010;SDS011;5558;42.702;23.178;2024-03-25T02:43:30;1.10;;;1.10;;
11010;SDS011;5558;42.702;23.178;2024-03-25T02:45:55;1.00;;;1.00;;
11010;SDS011;5558;42.702;23.178;2024-03-25T02:48:22;0.90;;;0.90;;
11010;SDS011;5558;42.702;23.178;2024-03-25T02:50:48;0.80;;;0.80;;
11010;SDS011;5558;42.702;23.178;2024-03-25T02:53:14;0.57;;;0.57;;
11010;SDS011;5558;42.702;23.178;2024-03-25T02:55:40;0.80;;;0.80;;
11010;SDS011;5558;42.702;23.178;2024-03-25T02:58:07;0.60;;;0.60;;
11010;SDS011;5558;42.702;23.178;2024-03-25T03:00:34;1.00;;;1.00;;
11010;SDS011;5558;42.702;23.178;2024-03-25T03:03:00;0.80;;;0.80;;
11010;SDS011;5558;42.702;23.178;2024-03-25T03:05:26;0.60;;;0.60;;
11010;SDS011;5558;42.702;23.178;2024-03-25T03:07:53;1.00;;;1.00;;
11010;SDS011;5558;42.702;23.178;2024-03-25T03:10:18;0.60;;;0.60;;
11010;SDS011;5558;42.702;23.178;2024-03-25T03:12:45;1.90;;;1.80;;
11010;SDS011;5558;42.702;23.178;2024-03-25T03:15:12;2.43;;;2.33;;
11010;SDS011;5558;42.702;23.178;2024-03-25T03:17:41;1.40;;;1.40;;
11010;SDS011;5558;42.702;23.178;2024-03-25T03:20:07;0.70;;;0.70;;
11010;SDS011;5558;42.702;23.178;2024-03-25T03:22:35;0.80;;;0.80;;
11010;SDS011;5558;42.702;23.178;2024-03-25T03:25:01;2.00;;;1.90;;
11010;SDS011;5558;42.702;23.178;2024-03-25T03:27:29;1.77;;;1.67;;
11010;SDS011;5558;42.702;23.178;2024-03-25T03:29:55;1.50;;;1.50;;
11010;SDS011;5558;42.702;23.178;2024-03-25T03:32:22;1.93;;;1.83;;
11010;SDS011;5558;42.702;23.178;2024-03-25T03:34:49;1.60;;;1.50;;
11010;SDS011;5558;42.702;23.178;2024-03-25T03:37:16;2.03;;;1.93;;
11010;SDS011;5558;42.702;23.178;2024-03-25T03:39:41;2.20;;;2.10;;
11010;SDS011;5558;42.702;23.178;2024-03-25T03:42:08;1.63;;;1.60;;
11010;SDS011;5558;42.702;23.178;2024-03-25T03:44:34;1.30;;;1.20;;
11010;SDS011;5558;42.702;23.178;2024-03-25T03:47:00;1.27;;;1.17;;
11010;SDS011;5558;42.702;23.178;2024-03-25T03:49:26;1.03;;;1.00;;
11010;SDS011;5558;42.702;23.178;2024-03-25T03:51:54;1.03;;;1.03;;
11010;SDS011;5558;42.702;23.178;2024-03-25T03:54:19;1.10;;;1.10;;
11010;SDS011;5558;42.702;23.178;2024-03-25T03:56:46;1.10;;;1.10;;
11010;SDS011;5558;42.702;23.178;2024-03-25T03:59:12;1.60;;;1.50;;
11010;SDS011;5558;42.702;23.178;2024-03-25T04:01:38;1.97;;;1.40;;
11010;SDS011;5558;42.702;23.178;2024-03-25T04:04:04;2.10;;;2.00;;
11010;SDS011;5558;42.702;23.178;2024-03-25T04:06:31;2.50;;;2.30;;
11010;SDS011;5558;42.702;23.178;2024-03-25T04:08:58;2.23;;;2.07;;
11010;SDS011;5558;42.702;23.178;2024-03-25T04:11:24;3.33;;;2.93;;
11010;SDS011;5558;42.702;23.178;2024-03-25T04:13:50;5.27;;;4.77;;
11010;SDS011;5558;42.702;23.178;2024-03-25T04:16:17;4.13;;;2.80;;
11010;SDS011;5558;42.702;23.178;2024-03-25T04:18:43;4.63;;;3.70;;
11010;SDS011;5558;42.702;23.178;2024-03-25T04:21:11;4.80;;;4.30;;
11010;SDS011;5558;42.702;23.178;2024-03-25T04:23:37;4.07;;;3.50;;
11010;SDS011;5558;42.702;23.178;2024-03-25T04:26:06;5.03;;;3.80;;
11010;SDS011;5558;42.702;23.178;2024-03-25T04:28:32;5.90;;;5.10;;
11010;SDS011;5558;42.702;23.178;2024-03-25T04:30:59;6.63;;;5.40;;
11010;SDS011;5558;42.702;23.178;2024-03-25T04:33:25;7.33;;;6.13;;
11010;SDS011;5558;42.702;23.178;2024-03-25T04:35:51;8.40;;;6.57;;
11010;SDS011;5558;42.702;23.178;2024-03-25T04:38:17;8.60;;;7.60;;
11010;SDS011;5558;42.702;23.178;2024-03-25T04:40:44;7.63;;;6.87;;
11010;SDS011;5558;42.702;23.178;2024-03-25T04:43:12;7.47;;;6.60;;
11010;SDS011;5558;42.702;23.178;2024-03-25T04:45:39;6.77;;;6.07;;
11010;SDS011;5558;42.702;23.178;2024-03-25T04:48:05;7.90;;;6.50;;
11010;SDS011;5558;42.702;23.178;2024-03-25T04:50:31;7.37;;;6.33;;
11010;SDS011;5558;42.702;23.178;2024-03-25T04:52:57;6.77;;;6.13;;
11010;SDS011;5558;42.702;23.178;2024-03-25T04:55:23;7.37;;;6.63;;
11010;SDS011;5558;42.702;23.178;2024-03-25T04:57:49;8.57;;;6.57;;
11010;SDS011;5558;42.702;23.178;2024-03-25T05:00:16;8.43;;;6.27;;
11010;SDS011;5558;42.702;23.178;2024-03-25T05:02:42;6.80;;;6.10;;
11010;SDS011;5558;42.702;23.178;2024-03-25T05:05:08;7.80;;;7.00;;
11010;SDS011;5558;42.702;23.178;2024-03-25T05:07:34;7.33;;;6.33;;
11010;SDS011;5558;42.702;23.178;2024-03-25T05:09:59;8.50;;;7.17;;
11010;SDS011;5558;42.702;23.178;2024-03-25T05:12:25;8.00;;;7.20;;
11010;SDS011;5558;42.702;23.178;2024-03-25T05:14:51;8.07;;;7.27;;
11010;SDS011;5558;42.702;23.178;2024-03-25T05:17:18;8.50;;;7.60;;
11010;SDS011;5558;42.702;23.178;2024-03-25T05:19:44;8.57;;;7.67;;
11010;SDS011;5558;42.702;23.178;2024-03-25T05:22:10;8.87;;;7.97;;
11010;SDS011;5558;42.702;23.178;2024-03-25T05:24:36;7.77;;;6.97;;
11010;SDS011;5558;42.702;23.178;2024-03-25T05:27:01;8.00;;;7.20;;
11010;SDS011;5558;42.702;23.178;2024-03-25T05:29:27;8.50;;;7.60;;
11010;SDS011;5558;42.702;23.178;2024-03-25T05:31:56;8.37;;;7.47;;
11010;SDS011;5558;42.702;23.178;2024-03-25T05:34:25;8.97;;;7.30;;
11010;SDS011;5558;42.702;23.178;2024-03-25T05:36:51;8.07;;;7.23;;
11010;SDS011;5558;42.702;23.178;2024-03-25T05:39:17;8.23;;;7.40;;
11010;SDS011;5558;42.702;23.178;2024-03-25T05:41:43;9.07;;;7.90;;
11010;SDS011;5558;42.702;23.178;2024-03-25T05:44:09;8.60;;;7.70;;
11010;SDS011;5558;42.702;23.178;2024-03-25T05:46:34;8.27;;;7.47;;
11010;SDS011;5558;42.702;23.178;2024-03-25T05:49:03;8.77;;;7.40;;
11010;SDS011;5558;42.702;23.178;2024-03-25T05:51:31;7.17;;;6.47;;
11010;SDS011;5558;42.702;23.178;2024-03-25T05:53:57;7.00;;;6.40;;
11010;SDS011;5558;42.702;23.178;2024-03-25T05:56:22;6.27;;;5.67;;
11010;SDS011;5558;42.702;23.178;2024-03-25T05:58:48;6.17;;;5.67;;
11010;SDS011;5558;42.702;23.178;2024-03-25T06:01:14;6.80;;;6.20;;
11010;SDS011;5558;42.702;23.178;2024-03-25T06:03:40;7.13;;;6.50;;
11010;SDS011;5558;42.702;23.178;2024-03-25T06:06:06;7.07;;;6.37;;
11010;SDS011;5558;42.702;23.178;2024-03-25T06:08:33;6.97;;;6.37;;
11010;SDS011;5558;42.702;23.178;2024-03-25T06:11:02;7.03;;;6.43;;
11010;SDS011;5558;42.702;23.178;2024-03-25T06:13:28;7.20;;;6.60;;
11010;SDS011;5558;42.702;23.178;2024-03-25T06:15:53;7.07;;;6.37;;
11010;SDS011;5558;42.702;23.178;2024-03-25T06:18:19;6.77;;;6.20;;
11010;SDS011;5558;42.702;23.178;2024-03-25T06:20:45;6.80;;;6.10;;
11010;SDS011;5558;42.702;23.178;2024-03-25T06:23:11;6.53;;;6.03;;
11010;SDS011;5558;42.702;23.178;2024-03-25T06:25:48;6.67;;;6.07;;
11010;SDS011;5558;42.702;23.178;2024-03-25T06:28:15;6.07;;;5.57;;
11010;SDS011;5558;42.702;23.178;2024-03-25T06:30:40;6.50;;;5.90;;
11010;SDS011;5558;42.702;23.178;2024-03-25T06:33:24;7.23;;;6.63;;
11010;SDS011;5558;42.702;23.178;2024-03-25T06:36:08;7.03;;;6.43;;
11010;SDS011;5558;42.702;23.178;2024-03-25T06:38:34;7.10;;;6.50;;
11010;SDS011;5558;42.702;23.178;2024-03-25T06:41:01;6.60;;;6.10;;
11010;SDS011;5558;42.702;23.178;2024-03-25T06:43:27;5.93;;;5.43;;
11010;SDS011;5558;42.702;23.178;2024-03-25T06:45:53;6.93;;;6.40;;
11010;SDS011;5558;42.702;23.178;2024-03-25T06:48:18;6.87;;;6.27;;
11010;SDS011;5558;42.702;23.178;2024-03-25T06:50:51;6.50;;;6.00;;
11010;SDS011;5558;42.702;23.178;2024-03-25T06:53:17;6.27;;;5.77;;
11010;SDS011;5558;42.702;23.178;2024-03-25T06:55:50;5.90;;;5.40;;
11010;SDS011;5558;42.702;23.178;2024-03-25T06:58:17;6.27;;;5.77;;
11010;SDS011;5558;42.702;23.178;2024-03-25T07:00:44;6.20;;;5.60;;
11010;SDS011;5558;42.702;23.178;2024-03-25T07:03:10;6.37;;;5.87;;
11010;SDS011;5558;42.702;23.178;2024-03-25T07:05:35;6.10;;;5.60;;
11010;SDS011;5558;42.702;23.178;2024-03-25T07:08:01;6.20;;;5.70;;
11010;SDS011;5558;42.702;23.178;2024-03-25T07:10:27;6.37;;;5.80;;
11010;SDS011;5558;42.702;23.178;2024-03-25T07:12:53;6.13;;;5.63;;
11010;SDS011;5558;42.702;23.178;2024-03-25T07:15:20;6.07;;;5.57;;
11010;SDS011;5558;42.702;23.178;2024-03-25T07:17:46;5.87;;;5.37;;
11010;SDS011;5558;42.702;23.178;2024-03-25T07:20:11;6.10;;;5.60;;
11010;SDS011;5558;42.702;23.178;2024-03-25T07:22:37;6.03;;;5.53;;
11010;SDS011;5558;42.702;23.178;2024-03-25T07:25:03;6.17;;;5.60;;
11010;SDS011;5558;42.702;23.178;2024-03-25T07:27:29;5.80;;;5.30;;
11010;SDS011;5558;42.702;23.178;2024-03-25T07:29:55;5.20;;;4.80;;
11010;SDS011;5558;42.702;23.178;2024-03-25T07:32:22;5.80;;;5.40;;
11010;SDS011;5558;42.702;23.178;2024-03-25T07:34:48;5.67;;;5.20;;
11010;SDS011;5558;42.702;23.178;2024-03-25T07:37:13;5.50;;;5.10;;
11010;SDS011;5558;42.702;23.178;2024-03-25T07:39:39;5.57;;;5.07;;
11010;SDS011;5558;42.702;23.178;2024-03-25T07:42:05;5.50;;;5.00;;
11010;SDS011;5558;42.702;23.178;2024-03-25T07:44:31;5.40;;;4.90;;
11010;SDS011;5558;42.702;23.178;2024-03-25T07:46:57;6.03;;;5.53;;
11010;SDS011;5558;42.702;23.178;2024-03-25T07:49:24;6.10;;;5.50;;
11010;SDS011;5558;42.702;23.178;2024-03-25T07:51:50;5.10;;;4.70;;
11010;SDS011;5558;42.702;23.178;2024-03-25T07:54:16;5.57;;;5.07;;
11010;SDS011;5558;42.702;23.178;2024-03-25T07:56:41;5.03;;;4.63;;
11010;SDS011;5558;42.702;23.178;2024-03-25T07:59:07;5.20;;;4.80;;
11010;SDS011;5558;42.702;23.178;2024-03-25T08:01:33;4.87;;;4.47;;
11010;SDS011;5558;42.702;23.178;2024-03-25T08:03:58;5.03;;;4.63;;
11010;SDS011;5558;42.702;23.178;2024-03-25T08:06:26;5.00;;;4.60;;
11010;SDS011;5558;42.702;23.178;2024-03-25T08:08:51;4.73;;;4.43;;
11010;SDS011;5558;42.702;23.178;2024-03-25T08:11:17;4.90;;;4.50;;
11010;SDS011;5558;42.702;23.178;2024-03-25T08:13:43;4.93;;;4.53;;
11010;SDS011;5558;42.702;23.178;2024-03-25T08:16:08;5.27;;;4.83;;
11010;SDS011;5558;42.702;23.178;2024-03-25T08:18:34;5.20;;;4.80;;
11010;SDS011;5558;42.702;23.178;2024-03-25T08:21:00;5.50;;;5.00;;
11010;SDS011;5558;42.702;23.178;2024-03-25T08:23:27;4.97;;;4.57;;
11010;SDS011;5558;42.702;23.178;2024-03-25T08:25:53;5.33;;;4.83;;
11010;SDS011;5558;42.702;23.178;2024-03-25T08:28:18;5.10;;;4.70;;
11010;SDS011;5558;42.702;23.178;2024-03-25T08:30:44;5.20;;;4.80;;
11010;SDS011;5558;42.702;23.178;2024-03-25T08:33:10;5.03;;;4.57;;
11010;SDS011;5558;42.702;23.178;2024-03-25T08:35:35;4.77;;;4.37;;
11010;SDS011;5558;42.702;23.178;2024-03-25T08:38:03;4.83;;;4.47;;
11010;SDS011;5558;42.702;23.178;2024-03-25T08:40:30;4.80;;;4.40;;
11010;SDS011;5558;42.702;23.178;2024-03-25T08:42:56;5.30;;;4.80;;
11010;SDS011;5558;42.702;23.178;2024-03-25T08:45:22;5.20;;;4.80;;
11010;SDS011;5558;42.702;23.178;2024-03-25T08:47:47;5.77;;;5.27;;
11010;SDS011;5558;42.702;23.178;2024-03-25T08:50:13;5.37;;;4.87;;
11010;SDS011;5558;42.702;23.178;2024-03-25T08:52:39;5.20;;;4.80;;
11010;SDS011;5558;42.702;23.178;2024-03-25T08:55:05;4.80;;;4.40;;
11010;SDS011;5558;42.702;23.178;2024-03-25T08:57:33;5.23;;;4.83;;
11010;SDS011;5558;42.702;23.178;2024-03-25T08:59:58;4.63;;;4.30;;
11010;SDS011;5558;42.702;23.178;2024-03-25T09:02:24;5.33;;;4.83;;
11010;SDS011;5558;42.702;23.178;2024-03-25T09:04:50;4.73;;;4.37;;
11010;SDS011;5558;42.702;23.178;2024-03-25T09:07:17;5.50;;;5.10;;
11010;SDS011;5558;42.702;23.178;2024-03-25T09:09:42;5.80;;;5.30;;
11010;SDS011;5558;42.702;23.178;2024-03-25T09:12:33;5.60;;;5.20;;
11010;SDS011;5558;42.702;23.178;2024-03-25T09:14:59;5.70;;;5.20;;
11010;SDS011;5558;42.702;23.178;2024-03-25T09:17:25;5.80;;;5.30;;
11010;SDS011;5558;42.702;23.178;2024-03-25T09:19:50;5.73;;;5.23;;
11010;SDS011;5558;42.702;23.178;2024-03-25T09:22:16;5.63;;;5.23;;
11010;SDS011;5558;42.702;23.178;2024-03-25T09:24:42;5.37;;;4.97;;
11010;SDS011;5558;42.702;23.178;2024-03-25T09:27:08;5.57;;;5.17;;
11010;SDS011;5558;42.702;23.178;2024-03-25T09:29:35;5.47;;;5.07;;
11010;SDS011;5558;42.702;23.178;2024-03-25T09:32:00;5.10;;;4.70;;
11010;SDS011;5558;42.702;23.178;2024-03-25T09:34:26;4.63;;;4.23;;
11010;SDS011;5558;42.702;23.178;2024-03-25T09:36:52;5.13;;;4.73;;
11010;SDS011;5558;42.702;23.178;2024-03-25T09:39:17;5.30;;;4.80;;
11010;SDS011;5558;42.702;23.178;2024-03-25T09:41:43;4.60;;;4.30;;
11010;SDS011;5558;42.702;23.178;2024-03-25T09:44:10;4.73;;;4.33;;
11010;SDS011;5558;42.702;23.178;2024-03-25T09:46:37;4.50;;;4.10;;
11010;SDS011;5558;42.702;23.178;2024-03-25T09:49:03;4.07;;;3.77;;
11010;SDS011;5558;42.702;23.178;2024-03-25T09:51:29;3.70;;;3.40;;
11010;SDS011;5558;42.702;23.178;2024-03-25T09:53:54;3.90;;;3.60;;
11010;SDS011;5558;42.702;23.178;2024-03-25T09:56:20;3.60;;;3.40;;
11010;SDS011;5558;42.702;23.178;2024-03-25T09:58:46;3.60;;;3.30;;
11010;SDS011;5558;42.702;23.178;2024-03-25T10:01:12;3.97;;;3.67;;
11010;SDS011;5558;42.702;23.178;2024-03-25T10:03:39;3.70;;;3.47;;
11010;SDS011;5558;42.702;23.178;2024-03-25T10:06:05;3.50;;;3.30;;
11010;SDS011;5558;42.702;23.178;2024-03-25T10:08:31;3.80;;;3.50;;
11010;SDS011;5558;42.702;23.178;2024-03-25T10:10:57;3.70;;;3.40;;
11010;SDS011;5558;42.702;23.178;2024-03-25T10:13:22;3.10;;;2.90;;
11010;SDS011;5558;42.702;23.178;2024-03-25T10:15:48;3.33;;;3.03;;
11010;SDS011;5558;42.702;23.178;2024-03-25T10:18:14;2.90;;;2.70;;
11010;SDS011;5558;42.702;23.178;2024-03-25T10:20:48;2.80;;;2.30;;
11010;SDS011;5558;42.702;23.178;2024-03-25T10:23:14;2.47;;;2.30;;
11010;SDS011;5558;42.702;23.178;2024-03-25T10:25:39;2.90;;;2.70;;
11010;SDS011;5558;42.702;23.178;2024-03-25T10:28:05;2.97;;;2.77;;
11010;SDS011;5558;42.702;23.178;2024-03-25T10:30:31;3.00;;;2.80;;
11010;SDS011;5558;42.702;23.178;2024-03-25T10:32:57;3.10;;;2.90;;
11010;SDS011;5558;42.702;23.178;2024-03-25T10:35:25;2.73;;;2.53;;
11010;SDS011;5558;42.702;23.178;2024-03-25T10:37:54;3.23;;;2.97;;
11010;SDS011;5558;42.702;23.178;2024-03-25T10:40:22;3.20;;;3.00;;
11010;SDS011;5558;42.702;23.178;2024-03-25T10:42:50;3.40;;;3.10;;
11010;SDS011;5558;42.702;23.178;2024-03-25T10:45:17;3.10;;;2.90;;
11010;SDS011;5558;42.702;23.178;2024-03-25T10:47:42;3.20;;;3.00;;
11010;SDS011;5558;42.702;23.178;2024-03-25T10:50:09;3.20;;;2.90;;
11010;SDS011;5558;42.702;23.178;2024-03-25T10:52:38;2.87;;;2.67;;
11010;SDS011;5558;42.702;23.178;2024-03-25T10:55:06;3.07;;;2.87;;
11010;SDS011;5558;42.702;23.178;2024-03-25T10:57:34;2.70;;;2.50;;
11010;SDS011;5558;42.702;23.178;2024-03-25T11:00:00;2.80;;;2.60;;
11010;SDS011;5558;42.702;23.178;2024-03-25T11:02:28;2.60;;;2.40;;
11010;SDS011;5558;42.702;23.178;2024-03-25T11:04:55;2.80;;;2.50;;
11010;SDS011;5558;42.702;23.178;2024-03-25T11:07:31;2.70;;;2.50;;
11010;SDS011;5558;42.702;23.178;2024-03-25T11:10:02;2.70;;;2.50;;
11010;SDS011;5558;42.702;23.178;2024-03-25T11:12:34;3.27;;;2.90;;
11010;SDS011;5558;42.702;23.178;2024-03-25T11:15:00;3.23;;;2.93;;
11010;SDS011;5558;42.702;23.178;2024-03-25T11:17:27;3.57;;;3.27;;
11010;SDS011;5558;42.702;23.178;2024-03-25T11:19:52;3.47;;;3.27;;
11010;SDS011;5558;42.702;23.178;2024-03-25T11:22:23;3.30;;;3.10;;
11010;SDS011;5558;42.702;23.178;2024-03-25T11:24:50;3.03;;;2.80;;
11010;SDS011;5558;42.702;23.178;2024-03-25T11:27:21;3.10;;;2.90;;
11010;SDS011;5558;42.702;23.178;2024-03-25T11:29:48;3.47;;;3.07;;
11010;SDS011;5558;42.702;23.178;2024-03-25T11:32:14;3.53;;;3.23;;
11010;SDS011;5558;42.702;23.178;2024-03-25T11:34:49;3.40;;;3.10;;
11010;SDS011;5558;42.702;23.178;2024-03-25T11:37:15;3.40;;;3.20;;
11010;SDS011;5558;42.702;23.178;2024-03-25T11:39:41;3.20;;;3.00;;
11010;SDS011;5558;42.702;23.178;2024-03-25T11:42:07;2.93;;;2.73;;
11010;SDS011;5558;42.702;23.178;2024-03-25T11:44:35;2.90;;;2.60;;
11010;SDS011;5558;42.702;23.178;2024-03-25T11:47:03;2.87;;;2.67;;
11010;SDS011;5558;42.702;23.178;2024-03-25T11:49:30;2.87;;;2.67;;
11010;SDS011;5558;42.702;23.178;2024-03-25T11:51:58;2.57;;;2.37;;
11010;SDS011;5558;42.702;23.178;2024-03-25T11:54:27;2.00;;;1.90;;
11010;SDS011;5558;42.702;23.178;2024-03-25T11:56:53;2.33;;;2.00;;
11010;SDS011;5558;42.702;23.178;2024-03-25T11:59:19;2.10;;;2.00;;
11010;SDS011;5558;42.702;23.178;2024-03-25T12:01:45;2.17;;;2.07;;
11010;SDS011;5558;42.702;23.178;2024-03-25T12:04:16;2.47;;;1.90;;
11010;SDS011;5558;42.702;23.178;2024-03-25T12:06:43;2.20;;;2.10;;
11010;SDS011;5558;42.702;23.178;2024-03-25T12:09:08;2.27;;;2.07;;
11010;SDS011;5558;42.702;23.178;2024-03-25T12:11:54;2.20;;;2.10;;
11010;SDS011;5558;42.702;23.178;2024-03-25T12:14:20;2.40;;;2.30;;
11010;SDS011;5558;42.702;23.178;2024-03-25T12:16:46;1.93;;;1.83;;
11010;SDS011;5558;42.702;23.178;2024-03-25T12:19:14;2.13;;;2.03;;
11010;SDS011;5558;42.702;23.178;2024-03-25T12:21:40;2.30;;;2.20;;
11010;SDS011;5558;42.702;23.178;2024-03-25T12:24:07;2.30;;;2.10;;
11010;SDS011;5558;42.702;23.178;2024-03-25T12:26:33;2.20;;;2.00;;
11010;SDS011;5558;42.702;23.178;2024-03-25T12:28:59;2.20;;;2.10;;
11010;SDS011;5558;42.702;23.178;2024-03-25T12:31:25;2.30;;;2.20;;
11010;SDS011;5558;42.702;23.178;2024-03-25T12:33:50;2.17;;;2.00;;
11010;SDS011;5558;42.702;23.178;2024-03-25T12:36:17;2.30;;;2.20;;
11010;SDS011;5558;42.702;23.178;2024-03-25T12:38:53;2.00;;;1.90;;
11010;SDS011;5558;42.702;23.178;2024-03-25T12:41:21;1.80;;;1.70;;
11010;SDS011;5558;42.702;23.178;2024-03-25T12:43:49;2.20;;;2.00;;
11010;SDS011;5558;42.702;23.178;2024-03-25T12:46:15;2.30;;;2.20;;
11010;SDS011;5558;42.702;23.178;2024-03-25T12:48:41;2.20;;;2.10;;
11010;SDS011;5558;42.702;23.178;2024-03-25T12:51:11;2.47;;;2.27;;
11010;SDS011;5558;42.702;23.178;2024-03-25T12:53:39;3.43;;;2.43;;
11010;SDS011;5558;42.702;23.178;2024-03-25T12:56:05;2.30;;;2.20;;
11010;SDS011;5558;42.702;23.178;2024-03-25T12:58:31;2.50;;;2.30;;
11010;SDS011;5558;42.702;23.178;2024-03-25T13:00:57;2.60;;;2.40;;
11010;SDS011;5558;42.702;23.178;2024-03-25T13:03:23;2.60;;;2.40;;
11010;SDS011;5558;42.702;23.178;2024-03-25T13:05:49;2.10;;;2.00;;
11010;SDS011;5558;42.702;23.178;2024-03-25T13:08:15;2.20;;;2.00;;
11010;SDS011;5558;42.702;23.178;2024-03-25T13:10:42;2.30;;;2.10;;
11010;SDS011;5558;42.702;23.178;2024-03-25T13:13:08;1.77;;;1.67;;
11010;SDS011;5558;42.702;23.178;2024-03-25T13:15:34;1.90;;;1.80;;
11010;SDS011;5558;42.702;23.178;2024-03-25T13:18:00;2.03;;;1.87;;
11010;SDS011;5558;42.702;23.178;2024-03-25T13:20:26;2.73;;;2.10;;
11010;SDS011;5558;42.702;23.178;2024-03-25T13:22:53;2.30;;;2.00;;
11010;SDS011;5558;42.702;23.178;2024-03-25T13:25:20;2.03;;;1.83;;
11010;SDS011;5558;42.702;23.178;2024-03-25T13:27:47;1.80;;;1.70;;
11010;SDS011;5558;42.702;23.178;2024-03-25T13:30:13;1.73;;;1.63;;
11010;SDS011;5558;42.702;23.178;2024-03-25T13:32:39;1.70;;;1.60;;
11010;SDS011;5558;42.702;23.178;2024-03-25T13:35:04;1.43;;;1.37;;
11010;SDS011;5558;42.702;23.178;2024-03-25T13:37:31;1.60;;;1.50;;
11010;SDS011;5558;42.702;23.178;2024-03-25T13:39:56;1.90;;;1.67;;
11010;SDS011;5558;42.702;23.178;2024-03-25T13:42:22;2.00;;;1.80;;
11010;SDS011;5558;42.702;23.178;2024-03-25T13:44:49;1.80;;;1.70;;
11010;SDS011;5558;42.702;23.178;2024-03-25T13:47:15;1.60;;;1.50;;
11010;SDS011;5558;42.702;23.178;2024-03-25T13:49:41;1.57;;;1.47;;
11010;SDS011;5558;42.702;23.178;2024-03-25T13:52:06;2.27;;;1.00;;
11010;SDS011;5558;42.702;23.178;2024-03-25T13:54:32;2.57;;;0.90;;
11010;SDS011;5558;42.702;23.178;2024-03-25T13:56:58;2.03;;;1.23;;
11010;SDS011;5558;42.702;23.178;2024-03-25T13:59:24;1.10;;;1.00;;
11010;SDS011;5558;42.702;23.178;2024-03-25T14:01:52;1.50;;;1.40;;
11010;SDS011;5558;42.702;23.178;2024-03-25T14:04:18;2.00;;;1.80;;
11010;SDS011;5558;42.702;23.178;2024-03-25T14:06:43;1.37;;;1.27;;
11010;SDS011;5558;42.702;23.178;2024-03-25T14:09:10;1.30;;;1.20;;
11010;SDS011;5558;42.702;23.178;2024-03-25T14:11:36;1.00;;;1.00;;
11010;SDS011;5558;42.702;23.178;2024-03-25T14:14:02;0.90;;;0.90;;
11010;SDS011;5558;42.702;23.178;2024-03-25T14:16:28;1.00;;;1.00;;
11010;SDS011;5558;42.702;23.178;2024-03-25T14:18:55;1.00;;;1.00;;
11010;SDS011;5558;42.702;23.178;2024-03-25T14:21:21;1.30;;;0.97;;
11010;SDS011;5558;42.702;23.178;2024-03-25T14:23:47;0.80;;;0.80;;
11010;SDS011;5558;42.702;23.178;2024-03-25T14:26:12;2.40;;;0.90;;
11010;SDS011;5558;42.702;23.178;2024-03-25T14:28:40;1.97;;;1.00;;
11010;SDS011;5558;42.702;23.178;2024-03-25T14:31:06;1.40;;;1.30;;
11010;SDS011;5558;42.702;23.178;2024-03-25T14:33:32;1.17;;;1.07;;
11010;SDS011;5558;42.702;23.178;2024-03-25T14:35:59;1.23;;;1.13;;
11010;SDS011;5558;42.702;23.178;2024-03-25T14:38:25;1.90;;;1.50;;
11010;SDS011;5558;42.702;23.178;2024-03-25T14:40:51;1.40;;;1.30;;
11010;SDS011;5558;42.702;23.178;2024-03-25T14:43:17;1.10;;;1.10;;
11010;SDS011;5558;42.702;23.178;2024-03-25T14:45:43;1.47;;;1.37;;